Data for 11/02/2012

Time Sea-Level Adjusted Pressure Absolute Pressure Temperature Relative Humidity Dew Point Precipitation   
(mb) (inHg) (mb) (inHg) (C) (F) (%) (C) (F) (mm) (in)
10:02 1023 30.21 852 25.16 5.9 42.6 66 0.1 32.3 0 0
10:03 1023 30.21 852 25.16 6 42.7 68 0.5 33 0 0
10:04 1023 30.21 852 25.16 6.1 43 64 -0.1 31.9 0 0
10:05 1023 30.21 852 25.16 6.3 43.3 65 0.2 32.4 0 0
10:06 1023 30.21 852 25.16 6.3 43.3 62 -0.5 31.1 0 0
10:07 1023 30.21 852 25.16 6.2 43.2 62 -0.4 31.2 0 0
10:08 1023 30.21 852 25.16 6.3 43.3 66 0.4 32.8 0 0
10:09 1023 30.21 852 25.16 6.3 43.4 60 -0.9 30.4 0 0
10:10 1023 30.21 852 25.16 6.3 43.3 61 -0.7 30.7 0 0
10:11 1023 30.21 852 25.16 6.3 43.3 63 -0.3 31.4 0 0
10:12 1023 30.21 852 25.16 6.4 43.5 63 -0.1 31.8 0 0
10:13 1023 30.21 852 25.16 6.5 43.8 63 0 32 0 0
10:14 1023 30.21 852 25.16 6.6 43.9 62 -0 31.9 0 0
10:15 1023 30.21 852 25.16 6.7 44 62 0 32 0 0
10:16 1023 30.21 852 25.16 6.7 44 61 -0.3 31.4 0 0
10:17 1023 30.21 852 25.16 6.7 44.1 59 -0.7 30.7 0 0
10:18 1023 30.21 852 25.16 6.7 44.1 62 -0 31.9 0 0
10:19 1023 30.21 852 25.16 6.7 44.1 63 0.2 32.4 0 0
10:20 1023 30.21 852 25.16 6.6 43.9 62 -0 32 0 0
10:21 1023 30.21 852 25.16 6.6 43.9 58 -1 30.1 0 0
10:22 1023 30.21 852 25.16 6.5 43.7 60 -0.7 30.7 0 0
10:23 1023 30.21 852 25.16 6.5 43.7 58 -1.1 30.1 0 0
10:24 1023 30.21 852 25.16 6.5 43.7 61 -0.6 31 0 0
10:25 1023 30.21 852 25.16 6.5 43.6 61 -0.4 31.3 0 0
10:26 1023 30.21 852 25.16 6.4 43.5 63 -0.2 31.6 0 0
10:27 1023 30.21 852 25.16 6.4 43.6 61 -0.6 31 0 0
10:28 1023 30.21 852 25.16 6.4 43.5 61 -0.7 30.8 0 0
10:29 1023 30.21 852 25.16 6.4 43.5 62 -0.3 31.5 0 0
10:30 1023 30.21 852 25.16 6.4 43.5 63 -0.2 31.6 0 0
10:31 1023 30.21 852 25.16 6.4 43.5 61 -0.7 30.8 0 0
10:32 1023 30.21 852 25.16 6.4 43.6 62 -0.2 31.6 0 0
10:33 1023 30.21 852 25.16 6.4 43.6 62 -0.3 31.5 0 0
10:34 1023 30.21 852 25.16 6.4 43.5 62 -0.4 31.2 0 0
10:35 1023 30.21 852 25.16 6.4 43.5 59 -1.1 30 0 0
10:36 1023 30.21 852 25.16 6.4 43.5 61 -0.5 31.1 0 0
10:37 1023 30.21 852 25.16 6.4 43.5 61 -0.6 31 0 0
10:38 1023 30.21 852 25.16 6.3 43.4 61 -0.6 31 0 0
10:39 1023 30.21 852 25.16 6.3 43.4 59 -1.2 29.9 0 0
10:40 1023 30.21 852 25.16 6.3 43.4 59 -1.1 30 0 0
10:41 1023 30.21 852 25.16 6.3 43.4 62 -0.4 31.2 0 0
10:42 1023 30.21 852 25.16 6.3 43.4 61 -0.6 31 0 0
10:43 1023 30.21 852 25.16 6.3 43.4 62 -0.5 31.2 0 0
10:44 1023 30.21 852 25.16 6.3 43.4 61 -0.6 30.8 0 0
10:45 1023 30.21 852 25.16 6.4 43.5 61 -0.6 31 0 0
10:46 1023 30.21 852 25.16 6.3 43.4 60 -0.7 30.7 0 0
10:47 1023 30.21 852 25.16 6.3 43.4 63 -0.2 31.6 0 0
10:48 1023 30.21 852 25.16 6.3 43.4 61 -0.5 31.1 0 0
10:49 1023 30.21 852 25.16 6.3 43.4 63 -0.1 31.7 0 0
10:50 1023 30.21 852 25.16 6.3 43.4 62 -0.4 31.3 0 0
10:51 1023 30.21 852 25.16 6.3 43.4 60 -0.8 30.6 0 0
10:52 1023 30.21 852 25.16 6.3 43.4 62 -0.4 31.3 0 0
10:53 1023 30.21 852 25.16 6.3 43.4 62 -0.3 31.4 0 0
10:54 1023 30.21 852 25.16 6.3 43.4 62 -0.5 31.1 0 0
10:55 1023 30.21 852 25.16 6.4 43.5 61 -0.6 30.9 0 0
10:56 1023 30.21 852 25.16 6.4 43.6 63 0 32 0 0
10:57 1023 30.21 852 25.16 6.5 43.7 64 0.1 32.2 0 0
10:58 1023 30.21 852 25.16 6.5 43.8 60 -0.6 30.9 0 0
10:59 1023 30.21 852 25.16 6.5 43.7 58 -1.1 29.9 0 0
11:00 1023 30.21 852 25.16 6.4 43.6 59 -1 30.1 0 0
11:01 1023 30.21 852 25.16 6.4 43.4 63 -0.3 31.5 0 0
11:02 1023 30.21 852 25.16 6.4 43.6 61 -0.5 31 0 0
11:03 1023 30.21 852 25.16 6.4 43.6 60 -0.6 30.8 0 0
11:04 1023 30.21 852 25.16 6.4 43.6 60 -0.8 30.5 0 0
11:05 1023 30.21 852 25.16 6.4 43.5 61 -0.5 31.1 0 0
11:06 1023 30.21 852 25.16 6.4 43.5 62 -0.3 31.4 0 0
11:07 1023 30.21 852 25.16 6.5 43.7 59 -1 30.2 0 0
11:08 1023 30.21 852 25.16 6.5 43.7 60 -0.7 30.8 0 0
11:09 1023 30.21 852 25.16 6.6 43.8 61 -0.3 31.4 0 0
11:10 1023 30.21 852 25.16 6.6 43.9 62 -0.1 31.9 0 0
11:11 1023 30.21 852 25.16 6.6 43.9 58 -1 30.3 0 0
11:12 1023 30.21 852 25.16 6.6 43.9 60 -0.5 31.1 0 0
11:13 1023 30.21 852 25.16 6.6 43.9 61 -0.4 31.4 0 0
11:14 1023 30.21 852 25.16 6.7 44 60 -0.5 31 0 0
11:15 1023 30.21 852 25.16 6.7 44.1 63 0.1 32.1 0 0
11:16 1023 30.21 852 25.16 6.7 44 60 -0.5 31.1 0 0
11:17 1023 30.21 852 25.16 6.7 44.1 59 -0.8 30.6 0 0
11:18 1023 30.21 852 25.16 6.7 44.1 61 -0.2 31.7 0 0
11:19 1023 30.21 852 25.16 6.7 44.1 61 -0.2 31.7 0 0
11:20 1023 30.21 852 25.16 6.8 44.2 62 0.1 32.1 0 0
11:21 1023 30.21 852 25.16 6.8 44.3 61 -0.1 31.7 0 0
11:22 1023 30.21 852 25.16 6.8 44.2 60 -0.5 31.1 0 0
11:23 1023 30.21 852 25.16 6.8 44.3 61 -0.3 31.5 0 0
11:24 1023 30.21 852 25.16 6.7 44.1 61 -0.3 31.5 0 0
11:25 1023 30.21 852 25.16 6.8 44.2 60 -0.4 31.3 0 0
11:26 1023 30.21 852 25.16 6.8 44.3 63 0.2 32.4 0 0
11:27 1023 30.21 852 25.16 6.9 44.3 62 0.1 32.2 0 0
11:28 1023 30.21 852 25.16 6.9 44.5 58 -0.7 30.7 0 0
11:29 1023 30.21 852 25.16 6.9 44.5 61 -0.1 31.8 0 0
11:30 1023 30.21 852 25.16 6.9 44.5 59 -0.5 31.1 0 0
11:31 1023 30.21 852 25.16 7 44.5 60 -0.3 31.5 0 0
11:32 1023 30.21 852 25.16 6.9 44.5 64 0.7 33.3 0 0
11:33 1023 30.21 852 25.16 7 44.6 60 -0.3 31.5 0 0
11:34 1023 30.21 852 25.16 6.9 44.5 58 -0.7 30.7 0 0
11:35 1023 30.21 852 25.16 6.9 44.5 60 -0.2 31.7 0 0
11:36 1023 30.21 852 25.16 6.9 44.5 60 -0.4 31.3 0 0
11:37 1023 30.21 852 25.16 6.9 44.5 61 -0.1 31.8 0 0
11:38 1023 30.21 852 25.16 7 44.6 58 -0.6 30.9 0 0
11:39 1023 30.21 852 25.16 7 44.6 60 -0.2 31.6 0 0
11:40 1023 30.21 852 25.16 7 44.6 59 -0.4 31.3 0 0
11:41 1023 30.21 852 25.16 7 44.6 58 -0.7 30.8 0 0
11:42 1023 30.21 852 25.16 7 44.6 60 -0.3 31.5 0 0
11:43 1023 30.21 852 25.16 7.1 44.7 57 -0.8 30.6 0 0
11:44 1023 30.21 852 25.16 7.1 44.8 61 0 32 0 0
11:45 1023 30.21 852 25.16 7.2 44.9 60 0 32.1 0 0
11:46 1023 30.21 852 25.16 7.2 44.9 60 -0 32 0 0
11:47 1023 30.21 852 25.16 7.1 44.9 61 0.1 32.3 0 0
11:48 1023 30.21 852 25.16 7.1 44.7 59 -0.3 31.4 0 0
11:49 1023 30.21 852 25.16 7.1 44.8 63 0.6 33.1 0 0
11:50 1023 30.21 852 25.16 7.2 44.9 59 -0.3 31.5 0 0
11:51 1023 30.21 852 25.16 7.2 45 58 -0.6 30.9 0 0
11:52 1023 30.21 852 25.16 7.2 45 58 -0.5 31.1 0 0
11:53 1023 30.21 852 25.16 7.2 45 58 -0.5 31.1 0 0
11:54 1023 30.21 852 25.16 7.2 45 57 -0.8 30.6 0 0
11:55 1023 30.21 852 25.16 7.1 44.8 59 -0.4 31.2 0 0
11:56 1023 30.21 852 25.16 7.1 44.8 57 -0.7 30.7 0 0
11:57 1023 30.21 852 25.16 7 44.7 58 -0.6 30.9 0 0
11:58 1023 30.21 852 25.16 7.1 44.7 58 -0.6 31 0 0
11:59 1023 30.21 852 25.16 7 44.7 59 -0.5 31.2 0 0
12:00 1023 30.21 852 25.16 7.1 44.7 61 0.1 32.1 0 0
12:01 1023 30.21 852 25.16 7.2 44.9 56 -0.9 30.4 0 0
12:02 1023 30.21 852 25.16 7.3 45.1 62 0.6 33 0 0
12:03 1023 30.21 852 25.16 7.3 45.1 60 0.1 32.2 0 0
12:04 1023 30.21 852 25.16 7.4 45.3 62 0.6 33 0 0
12:05 1023 30.21 852 25.16 7.5 45.4 62 0.8 33.4 0 0
12:06 1023 30.21 852 25.16 7.5 45.5 59 -0 32 0 0
12:07 1023 30.21 852 25.16 7.5 45.5 60 0.3 32.6 0 0
12:08 1023 30.21 852 25.16 7.5 45.5 61 0.6 33 0 0
12:09 1023 30.21 852 25.16 7.6 45.7 57 -0.3 31.4 0 0
12:10 1023 30.21 852 25.16 7.6 45.7 59 0.2 32.3 0 0
12:11 1023 30.21 852 25.16 7.7 45.8 58 -0.1 31.9 0 0
12:12 1023 30.21 852 25.16 7.7 45.8 59 0.1 32.2 0 0
12:13 1023 30.21 852 25.16 7.6 45.7 55 -0.7 30.7 0 0
12:14 1023 30.21 852 25.16 7.6 45.6 57 -0.3 31.4 0 0
12:15 1023 30.21 852 25.16 7.5 45.6 57 -0.5 31.1 0 0
12:16 1023 30.21 852 25.16 7.5 45.4 60 0.3 32.5 0 0
12:17 1023 30.21 852 25.16 7.6 45.6 56 -0.5 31 0 0
12:18 1023 30.21 852 25.16 7.6 45.7 57 -0.3 31.5 0 0
12:19 1023 30.21 852 25.16 7.6 45.7 58 -0 32 0 0
12:20 1023 30.21 852 25.16 7.6 45.7 56 -0.5 31.1 0 0
12:21 1023 30.21 852 25.16 7.6 45.7 61 0.5 32.9 0 0
12:22 1023 30.21 852 25.16 7.8 46 57 -0.3 31.5 0 0
12:23 1023 30.21 852 25.16 7.8 46 55 -0.6 30.9 0 0
12:24 1023 30.21 852 25.16 7.7 45.8 55 -0.9 30.5 0 0
12:25 1023 30.21 852 25.16 7.7 45.8 55 -0.8 30.6 0 0
12:26 1023 30.21 852 25.16 7.8 46 54 -0.9 30.3 0 0
12:27 1023 30.21 852 25.16 7.8 46 58 0.1 32.2 0 0
12:28 1023 30.21 852 25.16 7.8 46 57 -0.2 31.7 0 0
12:29 1023 30.21 852 25.16 7.7 45.9 56 -0.4 31.3 0 0
12:30 1023 30.21 852 25.16 7.7 45.9 56 -0.6 31 0 0
12:31 1023 30.21 852 25.16 7.8 46.1 57 -0 31.9 0 0
12:32 1023 30.21 852 25.16 7.7 45.9 57 -0.2 31.6 0 0
12:33 1023 30.21 852 25.16 7.6 45.7 60 0.3 32.5 0 0
12:34 1023 30.21 852 25.16 7.6 45.8 57 -0.2 31.6 0 0
12:35 1023 30.21 852 25.16 7.6 45.7 57 -0.3 31.5 0 0
12:36 1023 30.21 852 25.16 7.6 45.7 56 -0.5 31 0 0
12:37 1023 30.21 852 25.16 7.7 45.8 55 -0.8 30.6 0 0
12:38 1023 30.21 852 25.16 7.7 45.9 55 -0.7 30.8 0 0
12:39 1023 30.21 852 25.16 7.8 46.1 59 0.4 32.8 0 0
12:40 1023 30.21 852 25.16 7.9 46.1 54 -0.8 30.6 0 0
12:41 1023 30.21 852 25.16 7.8 46.1 56 -0.5 31.2 0 0
12:42 1023 30.21 852 25.16 7.8 46.1 59 0.3 32.5 0 0
12:43 1023 30.21 852 25.16 7.9 46.1 56 -0.3 31.4 0 0
12:44 1023 30.21 852 25.16 7.8 46.1 56 -0.3 31.4 0 0
12:45 1023 30.21 852 25.16 7.9 46.3 58 0.1 32.3 0 0
12:46 1023 30.21 852 25.16 8.1 46.6 57 0.1 32.1 0 0
12:47 1023 30.21 852 25.16 8.4 47.2 54 -0.3 31.5 0 0
12:48 1023 30.21 852 25.16 8.6 47.5 56 0.3 32.6 0 0
12:49 1023 30.21 852 25.16 8.8 47.8 56 0.5 32.9 0 0
12:50 1023 30.21 852 25.16 8.9 48.1 53 -0.2 31.7 0 0
12:51 1023 30.21 852 25.16 8.9 48 55 0.3 32.5 0 0
12:52 1023 30.21 852 25.16 8.9 48.1 53 -0.1 31.9 0 0
12:53 1023 30.21 852 25.16 8.9 48 53 -0.2 31.7 0 0
12:54 1023 30.21 852 25.16 8.7 47.7 52 -0.5 31.2 0 0
12:55 1023 30.21 852 25.16 8.5 47.3 53 -0.4 31.2 0 0
12:56 1023 30.21 852 25.16 8.3 47 55 -0.2 31.6 0 0
12:57 1023 30.21 852 25.16 8.2 46.7 54 -0.6 30.9 0 0
12:58 1023 30.21 852 25.16 8.1 46.5 54 -0.6 30.9 0 0
12:59 1023 30.21 852 25.16 8 46.4 54 -0.6 30.9 0 0
13:00 1023 30.21 852 25.16 7.9 46.3 54 -0.7 30.8 0 0
13:01 1023 30.21 852 25.16 8 46.4 56 -0.2 31.7 0 0
13:02 1023 30.21 852 25.16 8 46.5 56 -0.2 31.6 0 0
13:03 1023 30.21 852 25.16 8.1 46.6 55 -0.4 31.3 0 0
13:04 1023 30.21 852 25.16 8.1 46.5 55 -0.5 31.1 0 0
13:05 1023 30.21 852 25.16 7.9 46.3 55 -0.6 30.9 0 0
13:06 1023 30.21 852 25.16 7.8 46.1 56 -0.4 31.3 0 0
13:07 1023 30.21 852 25.16 7.8 46 57 -0.2 31.6 0 0
13:08 1023 30.21 852 25.16 7.8 46 56 -0.3 31.4 0 0
13:09 1023 30.21 852 25.16 7.7 45.9 58 0 32.1 0 0
13:10 1023 30.21 852 25.16 7.8 46.1 57 -0 31.9 0 0
13:11 1023 30.21 852 25.16 7.8 46.1 55 -0.5 31.1 0 0
13:12 1023 30.21 852 25.16 7.9 46.2 58 0.1 32.2 0 0
13:13 1023 30.21 852 25.16 8 46.4 56 -0.3 31.5 0 0
13:14 1023 30.21 852 25.16 8.1 46.5 57 0.1 32.3 0 0
13:15 1023 30.21 852 25.16 8.1 46.7 55 -0.2 31.6 0 0
13:16 1023 30.21 852 25.16 8.2 46.8 59 0.7 33.3 0 0
13:17 1023 30.21 852 25.16 8.5 47.2 56 0.2 32.3 0 0
13:18 1023 30.21 852 25.16 8.7 47.7 52 -0.6 31 0 0
13:19 1023 30.21 852 25.16 8.8 47.8 52 -0.4 31.2 0 0
13:20 1023 30.21 852 25.16 8.8 47.8 55 0.3 32.5 0 0
13:21 1023 30.21 852 25.16 8.9 48 55 0.3 32.5 0 0
13:22 1023 30.21 852 25.16 8.9 48.1 55 0.3 32.6 0 0
13:23 1023 30.21 852 25.16 9.1 48.5 53 0.1 32.1 0 0
13:24 1023 30.21 852 25.16 9.3 48.8 55 0.7 33.3 0 0
13:25 1023 30.21 852 25.16 9.5 49 51 -0.2 31.6 0 0
13:26 1023 30.21 852 25.16 9.3 48.7 54 0.4 32.7 0 0
13:27 1023 30.21 852 25.16 9.2 48.6 53 0.1 32.2 0 0
13:28 1023 30.21 852 25.16 9.2 48.5 54 0.4 32.8 0 0
13:29 1023 30.21 852 25.16 9.1 48.4 52 -0.2 31.7 0 0
13:30 1023 30.21 852 25.16 9.1 48.3 52 -0.3 31.4 0 0
13:31 1023 30.21 852 25.16 9.1 48.5 50 -0.7 30.8 0 0
13:32 1023 30.21 852 25.16 9.2 48.6 53 0.1 32.2 0 0
13:33 1023 30.21 852 25.16 9.3 48.7 52 -0.1 31.8 0 0
13:34 1023 30.21 852 25.16 9.1 48.5 52 -0.2 31.6 0 0
13:35 1023 30.21 852 25.16 9.1 48.3 54 0.2 32.3 0 0
13:36 1023 30.21 852 25.16 9 48.3 53 -0.1 31.9 0 0
13:37 1023 30.21 852 25.16 9 48.1 53 -0.2 31.7 0 0
13:38 1023 30.21 852 25.16 8.9 48 52 -0.3 31.5 0 0
13:39 1023 30.21 852 25.16 8.8 47.9 52 -0.5 31.2 0 0
13:40 1023 30.21 852 25.16 8.6 47.4 53 -0.3 31.4 0 0
13:41 1023 30.21 852 25.16 8.4 47.1 57 0.3 32.5 0 0
13:42 1023 30.21 852 25.16 8.3 47 53 -0.6 30.9 0 0
13:43 1023 30.21 852 25.16 8.2 46.8 53 -0.6 30.8 0 0
13:44 1023 30.21 852 25.16 8 46.5 56 -0.3 31.5 0 0
13:45 1023 30.21 852 25.16 8 46.3 56 -0.3 31.4 0 0
13:46 1023 30.21 852 25.16 7.9 46.2 57 0 32 0 0
13:47 1023 30.21 852 25.16 8 46.4 57 0 32.1 0 0
13:48 1023 30.21 852 25.16 8.1 46.6 56 -0.1 31.8 0 0
13:49 1023 30.21 852 25.16 8.2 46.8 55 -0.3 31.5 0 0
13:50 1023 30.21 852 25.16 8.4 47.1 55 -0.1 31.8 0 0
13:51 1023 30.21 852 25.16 8.7 47.6 55 0.1 32.2 0 0
13:52 1023 30.21 852 25.16 8.9 48.1 53 -0.2 31.6 0 0
13:53 1023 30.21 852 25.16 9 48.3 51 -0.5 31.1 0 0
13:54 1023 30.21 852 25.16 9 48.2 51 -0.6 30.9 0 0
13:55 1023 30.21 852 25.16 9 48.1 51 -0.6 30.8 0 0
13:56 1023 30.21 852 25.16 9 48.3 51 -0.4 31.2 0 0
13:57 1023 30.21 852 25.16 9.1 48.3 52 -0.2 31.7 0 0
13:58 1023 30.21 852 25.16 9.1 48.3 53 -0.1 31.9 0 0
13:59 1023 30.21 852 25.16 9.1 48.4 53 0.1 32.1 0 0
14:00 1023 30.21 852 25.16 9.2 48.6 53 0.1 32.1 0 0
14:01 1023 30.21 852 25.16 9.3 48.7 51 -0.2 31.6 0 0
14:02 1023 30.21 852 25.16 9.3 48.7 53 0.1 32.3 0 0
14:03 1023 30.21 852 25.16 9.3 48.7 52 -0 32 0 0
14:04 1023 30.21 852 25.16 9.3 48.7 52 0 32.1 0 0
14:05 1023 30.21 852 25.16 9.2 48.6 54 0.3 32.6 0 0
14:06 1023 30.21 852 25.16 9.3 48.7 52 0 32.1 0 0
14:07 1023 30.21 852 25.16 9.2 48.6 54 0.4 32.7 0 0
14:08 1023 30.21 852 25.16 9.3 48.7 53 0.4 32.6 0 0
14:09 1023 30.21 852 25.16 9.5 49.2 51 -0.1 31.8 0 0
14:10 1023 30.21 852 25.16 9.6 49.3 50 -0.2 31.6 0 0
14:11 1023 30.21 852 25.16 9.4 49 53 0.3 32.5 0 0
14:12 1023 30.21 852 25.16 9.3 48.8 51 -0.2 31.6 0 0
14:13 1023 30.21 852 25.16 9.1 48.4 51 -0.4 31.3 0 0
14:14 1023 30.21 852 25.16 8.9 47.9 53 -0.3 31.5 0 0
14:15 1023 30.21 852 25.16 8.6 47.5 53 -0.3 31.5 0 0
14:16 1022 30.18 852 25.16 8.4 47.2 54 -0.2 31.6 0 0
14:17 1022 30.18 852 25.16 8.3 47 54 -0.4 31.2 0 0
14:18 1022 30.18 852 25.16 8.2 46.8 55 -0.3 31.5 0 0
14:19 1022 30.18 852 25.16 8.2 46.8 55 -0.3 31.5 0 0
14:20 1022 30.18 852 25.16 8.2 46.8 54 -0.5 31.2 0 0
14:21 1022 30.18 852 25.16 8.1 46.6 55 -0.4 31.2 0 0
14:22 1022 30.18 852 25.16 8.1 46.6 56 -0.2 31.6 0 0
14:23 1022 30.18 852 25.16 8.1 46.6 55 -0.3 31.5 0 0
14:24 1022 30.18 852 25.16 8.1 46.6 56 -0.2 31.7 0 0
14:25 1022 30.18 852 25.16 8.2 46.7 54 -0.6 30.9 0 0
14:26 1022 30.18 852 25.16 8.2 46.7 53 -0.7 30.7 0 0
14:27 1022 30.18 852 25.16 8.1 46.7 55 -0.3 31.5 0 0
14:28 1022 30.18 852 25.16 8.2 46.7 56 -0.2 31.7 0 0
14:29 1022 30.18 852 25.16 8.2 46.8 55 -0.3 31.4 0 0
14:30 1022 30.18 852 25.16 8.3 46.9 54 -0.5 31.2 0 0
14:31 1022 30.18 852 25.16 8.3 47 53 -0.8 30.6 0 0
14:32 1022 30.18 852 25.16 8.4 47 54 -0.4 31.2 0 0
14:33 1022 30.18 852 25.16 8.5 47.2 51 -0.9 30.3 0 0
14:34 1022 30.18 852 25.16 8.6 47.6 49 -1.4 29.5 0 0
14:35 1022 30.18 852 25.16 8.8 47.8 50 -1 30.1 0 0
14:36 1022 30.18 852 25.16 9 48.2 50 -0.8 30.5 0 0
14:37 1022 30.18 852 25.16 9.1 48.4 49 -0.9 30.4 0 0
14:38 1022 30.18 852 25.16 9.2 48.6 48 -1.2 29.8 0 0
14:39 1022 30.18 852 25.16 9.3 48.7 50 -0.6 30.9 0 0
14:40 1022 30.18 852 25.16 9.3 48.7 49 -1 30.2 0 0
14:41 1022 30.18 852 25.16 9.3 48.7 50 -0.6 31 0 0
14:42 1022 30.18 852 25.16 9.4 48.9 48 -1.1 30 0 0
14:43 1022 30.18 852 25.16 9.5 49.1 46 -1.4 29.5 0 0
14:44 1022 30.18 851 25.13 9.7 49.5 49 -0.4 31.3 0 0
14:45 1022 30.18 851 25.13 9.9 49.8 46 -1.1 30 0 0
14:46 1022 30.18 852 25.16 10 50 48 -0.5 31.2 0 0
14:47 1022 30.18 852 25.16 9.9 49.8 48 -0.7 30.8 0 0
14:48 1022 30.18 852 25.16 10 50 50 0.1 32.1 0 0
14:49 1022 30.18 852 25.16 10.2 50.4 50 0.3 32.5 0 0
14:50 1022 30.18 851 25.13 10.5 50.8 46 -0.7 30.7 0 0
14:51 1022 30.18 852 25.16 10.5 50.9 47 -0.1 31.7 0 0
14:52 1022 30.18 851 25.13 10.3 50.5 47 -0.6 30.9 0 0
14:53 1022 30.18 851 25.13 10.1 50.1 49 -0.2 31.6 0 0
14:54 1022 30.18 851 25.13 9.9 49.7 49 -0.3 31.4 0 0
14:55 1022 30.18 851 25.13 9.8 49.7 50 -0.1 31.9 0 0
14:56 1022 30.18 851 25.13 9.8 49.7 48 -0.6 31 0 0
14:57 1022 30.18 851 25.13 9.7 49.5 48 -0.7 30.8 0 0
14:58 1022 30.18 851 25.13 9.6 49.2 48 -0.8 30.6 0 0
14:59 1022 30.18 851 25.13 9.5 49.1 49 -0.6 30.8 0 0
15:00 1022 30.18 851 25.13 9.4 48.8 49 -0.9 30.4 0 0
15:01 1022 30.18 851 25.13 9.2 48.5 49 -0.8 30.5 0 0
15:02 1022 30.18 851 25.13 9 48.2 51 -0.7 30.8 0 0
15:03 1022 30.18 851 25.13 9 48.1 49 -1.2 29.8 0 0
15:04 1022 30.18 851 25.13 8.9 48 49 -1.1 30 0 0
15:05 1022 30.18 851 25.13 8.9 48 50 -1 30.2 0 0
15:06 1022 30.18 851 25.13 8.9 48 50 -0.9 30.4 0 0
15:07 1022 30.18 851 25.13 9 48.3 50 -0.7 30.7 0 0
15:08 1022 30.18 851 25.13 9.1 48.3 50 -0.7 30.7 0 0
15:09 1022 30.18 851 25.13 9.1 48.3 50 -0.7 30.7 0 0
15:10 1022 30.18 851 25.13 9 48.1 51 -0.6 30.9 0 0
15:11 1022 30.18 851 25.13 9 48.1 50 -0.8 30.5 0 0
15:12 1022 30.18 851 25.13 8.9 48.1 52 -0.4 31.4 0 0
15:13 1022 30.18 851 25.13 9 48.1 50 -0.9 30.4 0 0
15:14 1022 30.18 851 25.13 9.1 48.4 51 -0.5 31 0 0
15:15 1022 30.18 851 25.13 9.3 48.8 49 -0.9 30.3 0 0
15:16 1022 30.18 851 25.13 9.5 49 50 -0.5 31.1 0 0
15:17 1022 30.18 851 25.13 9.7 49.4 46 -1.3 29.7 0 0
15:18 1022 30.18 851 25.13 9.6 49.3 47 -1.3 29.7 0 0
15:19 1022 30.18 851 25.13 9.5 49.1 46 -1.4 29.4 0 0
15:20 1022 30.18 851 25.13 9.3 48.8 47 -1.5 29.4 0 0
15:21 1022 30.18 851 25.13 9.2 48.5 49 -1.1 30.1 0 0
15:22 1022 30.18 851 25.13 9.2 48.6 49 -0.9 30.4 0 0
15:23 1022 30.18 851 25.13 9.2 48.5 48 -1.2 29.9 0 0
15:24 1022 30.18 851 25.13 9.3 48.7 48 -1.2 29.8 0 0
15:25 1022 30.18 851 25.13 9.3 48.8 47 -1.4 29.4 0 0
15:26 1022 30.18 851 25.13 9.4 48.9 47 -1.2 29.9 0 0
15:27 1022 30.18 851 25.13 9.4 48.9 47 -1.4 29.5 0 0
15:28 1022 30.18 851 25.13 9.2 48.6 47 -1.4 29.5 0 0
15:29 1022 30.18 851 25.13 9 48.2 48 -1.4 29.4 0 0
15:30 1022 30.18 851 25.13 8.9 48 48 -1.6 29.2 0 0
15:31 1022 30.18 851 25.13 8.9 47.9 48 -1.6 29.1 0 0
15:32 1022 30.18 851 25.13 8.8 47.9 49 -1.3 29.7 0 0
15:33 1022 30.18 851 25.13 8.8 47.8 48 -1.7 28.9 0 0
15:34 1022 30.18 851 25.13 8.8 47.8 49 -1.4 29.5 0 0
15:35 1022 30.18 851 25.13 8.8 47.9 49 -1.3 29.6 0 0
15:36 1022 30.18 851 25.13 8.8 47.9 50 -1.1 30 0 0
15:37 1022 30.18 851 25.13 8.8 47.9 50 -1 30.2 0 0
15:38 1022 30.18 851 25.13 8.8 47.8 49 -1.3 29.7 0 0
15:39 1022 30.18 851 25.13 8.8 47.8 48 -1.5 29.3 0 0
15:40 1022 30.18 851 25.13 8.7 47.6 49 -1.4 29.5 0 0
15:41 1022 30.18 851 25.13 8.7 47.6 50 -1.1 30.1 0 0
15:42 1022 30.18 851 25.13 8.7 47.7 51 -0.9 30.4 0 0
15:43 1022 30.18 851 25.13 8.8 47.8 48 -1.5 29.3 0 0
15:44 1022 30.18 851 25.13 8.8 47.9 49 -1.4 29.6 0 0
15:45 1022 30.18 851 25.13 8.9 48.1 49 -1.3 29.7 0 0
15:46 1022 30.18 851 25.13 9.2 48.5 48 -1.2 29.8 0 0
15:47 1022 30.18 851 25.13 9.6 49.2 46 -1.3 29.6 0 0
15:48 1022 30.18 851 25.13 9.8 49.6 45 -1.7 29 0 0
15:49 1022 30.18 851 25.13 9.9 49.7 45 -1.6 29.2 0 0
15:50 1022 30.18 851 25.13 10 50.1 45 -1.3 29.6 0 0
15:51 1022 30.18 851 25.13 10.3 50.5 44 -1.5 29.2 0 0
15:52 1022 30.18 851 25.13 10.4 50.8 45 -1.1 30.1 0 0
15:53 1022 30.18 851 25.13 10.5 50.9 44 -1.1 30 0 0
15:54 1022 30.18 851 25.13 10.6 51.2 43 -1.3 29.7 0 0
15:55 1022 30.18 851 25.13 10.6 51 42 -1.7 29 0 0
15:56 1022 30.18 851 25.13 10.5 50.9 45 -1 30.2 0 0
15:57 1022 30.18 851 25.13 10.5 51 43 -1.4 29.5 0 0
15:58 1022 30.18 851 25.13 10.5 50.8 45 -0.9 30.3 0 0
15:59 1022 30.18 851 25.13 10.4 50.8 44 -1.2 29.8 0 0
16:00 1022 30.18 851 25.13 10.4 50.6 43 -1.8 28.8 0 0
16:01 1022 30.18 851 25.13 10.2 50.4 43 -1.8 28.7 0 0
16:02 1022 30.18 851 25.13 10.1 50.2 43 -2 28.5 0 0
16:03 1022 30.18 851 25.13 10 50.1 44 -1.6 29.2 0 0
16:04 1022 30.18 851 25.13 10.1 50.2 45 -1.2 29.8 0 0
16:05 1022 30.18 851 25.13 10.2 50.4 43 -1.7 28.9 0 0
16:06 1022 30.18 851 25.13 10.2 50.3 43 -1.9 28.6 0 0
16:07 1022 30.18 851 25.13 10.1 50.2 44 -1.7 29 0 0
16:08 1022 30.18 851 25.13 10.3 50.5 44 -1.4 29.4 0 0
16:09 1022 30.18 851 25.13 10.3 50.6 42 -2 28.3 0 0
16:10 1022 30.18 851 25.13 10.3 50.6 44 -1.4 29.4 0 0
16:11 1022 30.18 851 25.13 10.3 50.5 44 -1.5 29.3 0 0
16:12 1022 30.18 851 25.13 10.3 50.5 43 -1.7 28.9 0 0
16:13 1022 30.18 851 25.13 10.3 50.6 42 -2 28.4 0 0
16:14 1022 30.18 851 25.13 10.2 50.3 44 -1.6 29.1 0 0
16:15 1022 30.18 851 25.13 10 49.9 43 -2 28.5 0 0
16:16 1022 30.18 851 25.13 9.8 49.6 44 -1.9 28.6 0 0
16:17 1022 30.18 851 25.13 9.7 49.4 45 -1.6 29.2 0 0
16:18 1022 30.18 851 25.13 9.6 49.2 45 -1.8 28.7 0 0
16:19 1022 30.18 851 25.13 9.5 49.2 45 -1.8 28.7 0 0
16:20 1022 30.18 851 25.13 9.5 49.2 44 -1.9 28.5 0 0
16:21 1022 30.18 851 25.13 9.6 49.2 45 -1.9 28.6 0 0
16:22 1022 30.18 851 25.13 9.6 49.2 45 -1.7 28.9 0 0
16:23 1022 30.18 851 25.13 9.6 49.2 47 -1.1 30 0 0
16:24 1022 30.18 851 25.13 9.6 49.3 46 -1.4 29.4 0 0
16:25 1022 30.18 851 25.13 9.6 49.2 44 -1.9 28.6 0 0
16:26 1022 30.18 851 25.13 9.6 49.2 45 -1.8 28.8 0 0
16:27 1022 30.18 851 25.13 9.6 49.2 45 -1.9 28.6 0 0
16:28 1022 30.18 851 25.13 9.7 49.4 45 -1.7 29 0 0
16:29 1022 30.18 851 25.13 9.7 49.5 45 -1.7 28.9 0 0
16:30 1022 30.18 851 25.13 9.7 49.4 46 -1.5 29.4 0 0
16:31 1022 30.18 851 25.13 9.7 49.5 44 -1.8 28.7 0 0
16:32 1022 30.18 851 25.13 9.7 49.5 45 -1.7 28.9 .2 0.008
16:33 1022 30.18 851 25.13 9.6 49.3 44 -2 28.5 0 0
16:34 1022 30.18 851 25.13 9.5 49.2 45 -1.7 28.9 0 0
16:35 1022 30.18 851 25.13 9.5 49.1 46 -1.7 29 0 0
16:36 1022 30.18 851 25.13 9.4 49 46 -1.5 29.3 0 0
16:37 1022 30.18 851 25.13 9.5 49 46 -1.5 29.4 0 0
16:38 1022 30.18 851 25.13 9.4 49 47 -1.4 29.6 0 0
16:39 1022 30.18 851 25.13 9.4 49 46 -1.5 29.3 0 0
16:40 1022 30.18 851 25.13 9.4 48.9 45 -1.9 28.6 0 0
16:41 1022 30.18 851 25.13 9.3 48.8 46 -1.8 28.8 0 0
16:42 1022 30.18 851 25.13 9.2 48.6 47 -1.6 29.1 0 0
16:43 1022 30.18 851 25.13 9.2 48.6 46 -1.9 28.6 0 0
16:44 1022 30.18 851 25.13 9.2 48.5 46 -1.9 28.6 0 0
16:45 1022 30.18 851 25.13 9.1 48.4 46 -1.8 28.8 0 0
16:46 1022 30.18 851 25.13 9.2 48.5 47 -1.6 29.1 0 0
16:47 1022 30.18 851 25.13 9.1 48.5 46 -1.8 28.7 0 0
16:48 1022 30.18 851 25.13 9.2 48.5 46 -1.7 28.9 0 0
16:49 1022 30.18 851 25.13 9.2 48.5 47 -1.5 29.2 0 0
16:50 1022 30.18 851 25.13 9.2 48.5 47 -1.5 29.3 0 0
16:51 1022 30.18 851 25.13 9.2 48.6 48 -1.1 30.1 0 0
16:52 1022 30.18 851 25.13 9.2 48.5 49 -1 30.2 0 0
16:53 1022 30.18 851 25.13 9.2 48.5 48 -1.1 30 0 0
16:54 1022 30.18 851 25.13 9.1 48.5 47 -1.5 29.4 0 0
16:55 1022 30.18 851 25.13 9.1 48.4 49 -1.1 30 0 0
16:56 1022 30.18 851 25.13 9.1 48.4 48 -1.4 29.5 0 0
16:57 1022 30.18 851 25.13 9.2 48.5 48 -1.2 29.8 0 0
16:58 1022 30.18 851 25.13 9.3 48.7 48 -1.2 29.8 0 0
16:59 1022 30.18 851 25.13 9.5 49.2 46 -1.4 29.5 0 0
17:00 1022 30.18 851 25.13 9.6 49.3 47 -1.2 29.8 0 0
17:01 1022 30.18 851 25.13 9.8 49.6 45 -1.6 29 0 0
17:02 1022 30.18 851 25.13 9.8 49.7 44 -1.8 28.8 0 0
17:03 1022 30.18 851 25.13 9.8 49.7 45 -1.4 29.5 0 0
17:04 1022 30.18 851 25.13 9.8 49.6 45 -1.5 29.3 0 0
17:05 1022 30.18 851 25.13 9.6 49.3 46 -1.5 29.3 0 0
17:06 1022 30.18 851 25.13 9.5 49.1 47 -1.3 29.7 0 0
17:07 1022 30.18 851 25.13 9.3 48.8 49 -0.9 30.3 0 0
17:08 1022 30.18 851 25.13 9.2 48.6 49 -0.8 30.6 0 0
17:09 1022 30.18 851 25.13 9.2 48.5 50 -0.7 30.7 0 0
17:10 1022 30.18 851 25.13 9.1 48.3 49 -1.1 30.1 0 0
17:11 1022 30.18 851 25.13 9 48.1 50 -1 30.2 0 0
17:12 1022 30.18 851 25.13 8.9 48.1 49 -1.1 30.1 0 0
17:13 1022 30.18 851 25.13 8.9 48 50 -0.9 30.3 0 0
17:14 1022 30.18 851 25.13 8.9 47.9 49 -1.1 30 0 0
17:15 1022 30.18 851 25.13 8.9 48.1 50 -0.8 30.6 0 0
17:16 1022 30.18 851 25.13 9 48.2 51 -0.7 30.8 0 0
17:17 1022 30.18 851 25.13 9.1 48.4 51 -0.3 31.4 0 0
17:18 1022 30.18 851 25.13 9.1 48.4 52 -0.2 31.6 0 0
17:19 1022 30.18 851 25.13 9.1 48.3 50 -0.8 30.5 0 0
17:20 1022 30.18 851 25.13 9 48.3 50 -0.9 30.4 0 0
17:21 1022 30.18 851 25.13 9 48.3 50 -0.8 30.6 0 0
17:22 1022 30.18 851 25.13 9.1 48.3 49 -1.1 30 0 0
17:23 1022 30.18 851 25.13 9.1 48.4 49 -1 30.1 0 0
17:24 1022 30.18 851 25.13 9.2 48.5 49 -1.1 30 0 0
17:25 1022 30.18 851 25.13 9.1 48.4 50 -0.8 30.6 0 0
17:26 1022 30.18 851 25.13 9.1 48.3 50 -0.8 30.5 0 0
17:27 1022 30.18 851 25.13 9.1 48.3 50 -0.8 30.5 0 0
17:28 1022 30.18 851 25.13 9.1 48.4 50 -0.9 30.5 0 0
17:29 1022 30.18 851 25.13 9.1 48.4 49 -1 30.2 0 0
17:30 1022 30.18 851 25.13 9.2 48.5 50 -0.7 30.7 0 0
17:31 1022 30.18 851 25.13 9.2 48.6 49 -0.9 30.3 0 0
17:32 1022 30.18 851 25.13 9.3 48.7 49 -0.8 30.6 0 0
17:33 1022 30.18 851 25.13 9.2 48.5 51 -0.5 31.1 0 0
17:34 1022 30.18 851 25.13 9 48.2 50 -0.9 30.4 0 0
17:35 1022 30.18 851 25.13 8.8 47.9 50 -1 30.2 0 0
17:36 1022 30.18 851 25.13 8.7 47.7 51 -0.9 30.5 0 0
17:37 1022 30.18 851 25.13 8.7 47.6 51 -0.9 30.4 0 0
17:38 1022 30.18 851 25.13 8.6 47.4 51 -1 30.1 0 0
17:39 1022 30.18 851 25.13 8.6 47.4 52 -0.7 30.8 0 0
17:40 1022 30.18 851 25.13 8.6 47.4 51 -0.9 30.4 0 0
17:41 1022 30.18 851 25.13 8.6 47.4 52 -0.6 30.9 0 0
17:42 1022 30.18 851 25.13 8.6 47.5 52 -0.8 30.6 0 0
17:43 1022 30.18 851 25.13 8.6 47.4 51 -0.9 30.3 0 0
17:44 1022 30.18 851 25.13 8.5 47.4 52 -0.7 30.7 0 0
17:45 1022 30.18 851 25.13 8.5 47.2 51 -1.1 30.1 0 0
17:46 1022 30.18 851 25.13 8.4 47.2 51 -1 30.2 0 0
17:47 1022 30.18 851 25.13 8.3 47 52 -1 30.2 0 0
17:48 1022 30.18 851 25.13 8.3 47 52 -1 30.3 0 0
17:49 1022 30.18 851 25.13 8.2 46.8 52 -0.9 30.3 0 0
17:50 1022 30.18 851 25.13 8.2 46.7 53 -0.8 30.6 0 0
17:51 1022 30.18 851 25.13 8.1 46.6 53 -0.8 30.6 0 0
17:52 1022 30.18 851 25.13 8 46.5 54 -0.8 30.6 0 0
17:53 1022 30.18 851 25.13 8 46.3 54 -0.8 30.6 0 0
17:54 1022 30.18 852 25.16 8 46.3 54 -0.7 30.7 0 0
17:55 1022 30.18 851 25.13 7.9 46.2 54 -0.8 30.5 0 0
17:56 1022 30.18 851 25.13 7.9 46.2 55 -0.6 31 0 0
17:57 1022 30.18 851 25.13 7.8 46.1 55 -0.5 31.1 0 0
17:58 1022 30.18 851 25.13 7.8 46 56 -0.5 31.1 0 0
17:59 1022 30.18 852 25.16 7.7 45.8 56 -0.5 31.1 0 0
18:00 1022 30.18 852 25.16 7.7 45.8 56 -0.5 31 0 0
18:01 1022 30.18 852 25.16 7.6 45.6 56 -0.6 31 0 0
18:02 1022 30.18 851 25.13 7.5 45.5 56 -0.6 31 0 0
18:03 1022 30.18 852 25.16 7.5 45.4 56 -0.8 30.6 0 0
18:04 1022 30.18 852 25.16 7.5 45.4 57 -0.5 31.1 0 0
18:05 1022 30.18 852 25.16 7.4 45.4 57 -0.5 31 0 0
18:06 1022 30.18 852 25.16 7.4 45.3 58 -0.4 31.3 0 0
18:07 1022 30.18 852 25.16 7.3 45.1 57 -0.6 31 0 0
18:08 1022 30.18 852 25.16 7.3 45.1 57 -0.6 30.9 0 0
18:09 1022 30.18 852 25.16 7.2 44.9 57 -0.8 30.6 0 0
18:10 1022 30.18 852 25.16 7.2 44.9 57 -0.8 30.6 0 0
18:11 1022 30.18 852 25.16 7.2 44.9 56 -0.9 30.4 0 0
18:12 1022 30.18 852 25.16 7.2 44.9 56 -1 30.2 0 0
18:13 1022 30.18 852 25.16 7.2 45 56 -1 30.2 0 0
18:14 1022 30.18 852 25.16 7.2 45 56 -1 30.3 0 0
18:15 1022 30.18 852 25.16 7.2 45 56 -1 30.1 0 0
18:16 1022 30.18 852 25.16 7.2 45 55 -1.3 29.7 0 0
18:17 1022 30.18 852 25.16 7.3 45.1 55 -1.1 30 0 0
18:18 1022 30.18 852 25.16 7.2 45 55 -1.1 30 0 0
18:19 1022 30.18 852 25.16 7.2 44.9 56 -1.1 30 0 0
18:20 1022 30.18 852 25.16 7.2 44.9 56 -1.1 30 0 0
18:21 1022 30.18 852 25.16 7.2 44.9 56 -1.1 30.1 0 0
18:22 1022 30.18 852 25.16 7.1 44.8 56 -1 30.2 0 0
18:23 1022 30.18 852 25.16 7.1 44.7 57 -0.9 30.3 0 0
18:24 1022 30.18 852 25.16 7 44.6 57 -0.9 30.4 0 0
18:25 1022 30.18 852 25.16 7 44.5 57 -1 30.3 0 0
18:26 1022 30.18 852 25.16 6.9 44.4 57 -1 30.2 0 0
18:27 1022 30.18 852 25.16 6.8 44.3 57 -1 30.1 0 0
18:28 1022 30.18 852 25.16 6.8 44.2 58 -1 30.3 0 0
18:29 1022 30.18 852 25.16 6.7 44 58 -1 30.3 0 0
18:30 1022 30.18 852 25.16 6.6 43.8 59 -1 30.3 0 0
18:31 1022 30.18 852 25.16 6.5 43.6 59 -1 30.2 0 0
18:32 1022 30.18 852 25.16 6.5 43.7 59 -1 30.2 0 0
18:33 1022 30.18 852 25.16 6.5 43.6 59 -0.9 30.3 0 0
18:34 1022 30.18 852 25.16 6.4 43.6 59 -0.9 30.3 0 0
18:35 1022 30.18 852 25.16 6.4 43.5 59 -0.9 30.3 0 0
18:36 1022 30.18 852 25.16 6.4 43.5 59 -1 30.2 0 0
18:37 1022 30.18 852 25.16 6.2 43.1 60 -1 30.2 0 0
18:38 1022 30.18 852 25.16 6 42.8 61 -1 30.2 0 0
18:39 1022 30.18 852 25.16 5.9 42.7 61 -1 30.1 0 0
18:40 1022 30.18 852 25.16 5.8 42.5 61 -1 30.2 0 0
18:41 1022 30.18 852 25.16 5.7 42.3 62 -1 30.1 0 0
18:42 1022 30.18 852 25.16 5.8 42.4 62 -1 30.2 0 0
18:43 1023 30.21 852 25.16 5.8 42.4 61 -1 30.1 0 0
18:44 1023 30.21 852 25.16 5.7 42.3 61 -1.1 30 0 0
18:45 1023 30.21 852 25.16 5.8 42.4 61 -1.1 30.1 0 0
18:46 1023 30.21 852 25.16 5.8 42.5 61 -1 30.1 0 0
18:47 1023 30.21 852 25.16 5.8 42.5 61 -1.1 30 0 0
18:48 1023 30.21 852 25.16 5.7 42.3 62 -1.1 30.1 0 0
18:49 1023 30.21 852 25.16 5.5 41.8 63 -1.1 30 0 0
18:50 1023 30.21 852 25.16 5.1 41.3 64 -1.1 30.1 0 0
18:51 1023 30.21 852 25.16 4.7 40.5 66 -1.1 30 0 0
18:52 1023 30.21 852 25.16 4.4 39.9 68 -1.1 30 0 0
18:53 1023 30.21 852 25.16 4.2 39.5 69 -1.1 30.1 0 0
18:54 1023 30.21 852 25.16 4 39.1 69 -1.2 29.9 0 0
18:55 1023 30.21 852 25.16 3.6 38.5 70 -1.3 29.6 0 0
18:56 1023 30.21 852 25.16 3.1 37.6 73 -1.3 29.7 0 0
18:57 1023 30.21 852 25.16 2.8 37 75 -1.2 29.9 0 0
18:58 1023 30.21 852 25.16 2.5 36.6 78 -0.9 30.3 0 0
18:59 1023 30.21 852 25.16 2.4 36.4 79 -0.9 30.4 0 0
19:00 1023 30.21 852 25.16 2.3 36.1 80 -0.8 30.5 0 0
19:01 1023 30.21 852 25.16 2.2 35.9 81 -0.7 30.8 0 0
19:02 1023 30.21 852 25.16 2.1 35.8 83 -0.5 31.1 0 0
19:03 1023 30.21 852 25.16 2.1 35.8 85 -0.2 31.6 0 0
19:04 1023 30.21 852 25.16 2.2 36 84 -0.2 31.6 0 0
19:05 1023 30.21 852 25.16 2.3 36.1 85 -0.1 31.9 0 0
19:06 1023 30.21 852 25.16 2.3 36.2 84 -0 32 0 0
19:07 1023 30.21 852 25.16 2.4 36.4 84 0 32 0 0
19:08 1023 30.21 852 25.16 2.4 36.4 84 -0 31.9 0 0
19:09 1023 30.21 852 25.16 2.4 36.2 83 -0.2 31.7 0 0
19:10 1023 30.21 852 25.16 2.3 36.2 83 -0.2 31.7 0 0
19:11 1023 30.21 852 25.16 2.3 36.1 84 -0.1 31.7 0 0
19:12 1023 30.21 852 25.16 2.3 36.1 84 -0.1 31.8 0 0
19:13 1023 30.21 852 25.16 2.2 36 85 -0.1 31.8 0 0
19:14 1023 30.21 852 25.16 2.2 35.9 85 -0.1 31.7 0 0
19:15 1023 30.21 852 25.16 2.1 35.8 85 -0.2 31.7 0 0
19:16 1023 30.21 852 25.16 2.1 35.7 85 -0.2 31.7 0 0
19:17 1023 30.21 852 25.16 2.1 35.8 86 -0.1 31.9 0 0
19:18 1023 30.21 852 25.16 2.2 36 85 -0 31.9 0 0
19:19 1023 30.21 852 25.16 2.3 36.2 84 -0 31.9 0 0
19:20 1023 30.21 852 25.16 2.3 36.1 84 -0.2 31.7 0 0
19:21 1023 30.21 852 25.16 2.2 36 84 -0.2 31.6 0 0
19:22 1023 30.21 852 25.16 2.1 35.8 84 -0.3 31.5 0 0
19:23 1023 30.21 852 25.16 2 35.7 85 -0.3 31.4 0 0
19:24 1023 30.21 852 25.16 2 35.6 85 -0.3 31.5 0 0
19:25 1023 30.21 852 25.16 2 35.6 84 -0.3 31.4 0 0
19:26 1023 30.21 852 25.16 2 35.5 84 -0.4 31.3 0 0
19:27 1023 30.21 852 25.16 1.9 35.4 84 -0.5 31.1 0 0
19:28 1023 30.21 852 25.16 1.8 35.2 85 -0.5 31.1 0 0
19:29 1023 30.21 852 25.16 1.7 35.1 85 -0.5 31.1 0 0
19:30 1023 30.21 852 25.16 1.6 34.9 85 -0.7 30.8 0 0
19:31 1023 30.21 852 25.16 1.5 34.7 85 -0.8 30.6 0 0
19:32 1023 30.21 852 25.16 1.4 34.4 85 -0.8 30.5 0 0
19:33 1023 30.21 852 25.16 1.3 34.4 86 -0.7 30.7 0 0
19:34 1023 30.21 852 25.16 1.3 34.3 86 -0.9 30.5 0 0
19:35 1023 30.21 852 25.16 1.2 34.2 86 -0.8 30.5 0 0
19:36 1023 30.21 852 25.16 1.2 34.1 86 -0.9 30.5 0 0
19:37 1023 30.21 852 25.16 1.2 34.1 86 -1 30.2 0 0
19:38 1023 30.21 852 25.16 1.1 34 85 -1.1 30 0 0
19:39 1023 30.21 852 25.16 1 33.8 86 -1.1 30 0 0
19:40 1023 30.21 852 25.16 1 33.8 85 -1.2 29.9 0 0
19:41 1023 30.21 852 25.16 1 33.8 85 -1.2 29.8 0 0
19:42 1023 30.21 852 25.16 1 33.7 86 -1.1 30 0 0
19:43 1023 30.21 852 25.16 1 33.8 85 -1.2 29.8 0 0
19:44 1023 30.21 852 25.16 1 33.8 85 -1.3 29.7 0 0
19:45 1023 30.21 852 25.16 0.9 33.6 85 -1.3 29.6 0 0
19:46 1023 30.21 852 25.16 0.9 33.6 85 -1.3 29.7 0 0
19:47 1023 30.21 852 25.16 0.7 33.3 85 -1.5 29.2 0 0
19:48 1023 30.21 852 25.16 0.6 33.1 85 -1.6 29.1 0 0
19:49 1023 30.21 852 25.16 0.5 32.9 86 -1.6 29.1 0 0
19:50 1023 30.21 852 25.16 0.4 32.7 85 -1.8 28.8 0 0
19:51 1023 30.21 852 25.16 0.3 32.6 85 -1.8 28.7 0 0
19:52 1023 30.21 852 25.16 0.2 32.4 85 -1.9 28.5 0 0
19:53 1023 30.21 852 25.16 0.1 32.1 86 -2 28.5 0 0
19:54 1023 30.21 852 25.16 0 32 86 -2 28.4 0 0
19:55 1023 30.21 852 25.16 -0 32 87 -1.9 28.6 0 0
19:56 1023 30.21 852 25.16 0 32 87 -1.9 28.6 0 0
19:57 1023 30.21 852 25.16 0.1 32.1 87 -1.8 28.8 0 0
19:58 1023 30.21 852 25.16 0.1 32.1 87 -1.9 28.6 0 0
19:59 1023 30.21 852 25.16 0.1 32.1 87 -1.9 28.6 0 0
20:00 1023 30.21 852 25.16 0 32 87 -1.9 28.6 0 0
20:01 1023 30.21 852 25.16 0 32 87 -1.9 28.5 0 0
20:02 1023 30.21 852 25.16 -0 31.9 87 -2 28.5 0 0
20:03 1023 30.21 852 25.16 -0.1 31.8 88 -1.9 28.6 0 0
20:04 1023 30.21 852 25.16 -0.1 31.8 87 -2 28.5 0 0
20:05 1023 30.21 852 25.16 -0.2 31.7 88 -2 28.5 0 0
20:06 1023 30.21 852 25.16 -0.2 31.7 88 -2 28.5 0 0
20:07 1023 30.21 852 25.16 -0.2 31.7 88 -1.9 28.6 0 0
20:08 1023 30.21 852 25.16 -0.2 31.7 89 -1.8 28.7 0 0
20:09 1023 30.21 852 25.16 -0.1 31.8 88 -1.9 28.6 0 0
20:10 1023 30.21 852 25.16 -0.1 31.8 88 -1.9 28.6 0 0
20:11 1023 30.21 852 25.16 -0.1 31.8 87 -1.9 28.5 0 0
20:12 1023 30.21 852 25.16 -0.2 31.7 88 -2 28.5 0 0
20:13 1023 30.21 852 25.16 -0.2 31.6 88 -1.9 28.5 0 0
20:14 1023 30.21 852 25.16 -0.2 31.6 88 -2 28.5 0 0
20:15 1023 30.21 852 25.16 -0.3 31.5 89 -1.9 28.5 0 0
20:16 1023 30.21 852 25.16 -0.2 31.6 89 -1.8 28.7 0 0
20:17 1023 30.21 852 25.16 -0.2 31.6 89 -1.8 28.8 0 0
20:18 1023 30.21 852 25.16 -0.1 31.7 90 -1.7 29 0 0
20:19 1023 30.21 852 25.16 -0.1 31.9 89 -1.7 29 0 0
20:20 1023 30.21 852 25.16 -0 31.9 89 -1.7 29 0 0
20:21 1023 30.21 852 25.16 -0 32 89 -1.6 29.1 0 0
20:22 1023 30.21 852 25.16 -0 32 89 -1.7 29 0 0
20:23 1023 30.21 852 25.16 -0 31.9 89 -1.7 29 0 0
20:24 1023 30.21 852 25.16 -0 32 89 -1.6 29 0 0
20:25 1023 30.21 852 25.16 -0.1 31.9 89 -1.6 29 0 0
20:26 1023 30.21 852 25.16 -0.1 31.9 89 -1.7 29 0 0
20:27 1023 30.21 852 25.16 -0.1 31.8 89 -1.7 28.9 0 0
20:28 1023 30.21 852 25.16 -0.1 31.8 89 -1.8 28.8 0 0
20:29 1023 30.21 852 25.16 -0.2 31.6 89 -1.8 28.7 0 0
20:30 1023 30.21 852 25.16 -0.2 31.6 89 -1.8 28.8 0 0
20:31 1023 30.21 852 25.16 -0.3 31.5 90 -1.8 28.8 0 0
20:32 1023 30.21 852 25.16 -0.3 31.5 90 -1.7 28.9 0 0
20:33 1023 30.21 852 25.16 -0.3 31.5 90 -1.7 28.9 0 0
20:34 1023 30.21 852 25.16 -0.2 31.6 90 -1.6 29.1 0 0
20:35 1023 30.21 852 25.16 -0.1 31.7 90 -1.6 29.2 0 0
20:36 1023 30.21 852 25.16 -0.1 31.8 90 -1.5 29.3 0 0
20:37 1023 30.21 852 25.16 0.1 32.1 90 -1.4 29.5 0 0
20:38 1023 30.21 852 25.16 0.2 32.4 90 -1.3 29.7 0 0
20:39 1023 30.21 852 25.16 0.5 32.9 90 -0.9 30.3 0 0
20:40 1023 30.21 852 25.16 0.7 33.3 88 -1 30.1 0 0
20:41 1023 30.21 852 25.16 0.8 33.5 87 -1 30.1 0 0
20:42 1023 30.21 852 25.16 0.9 33.6 87 -1 30.1 0 0
20:43 1023 30.21 852 25.16 1 33.8 86 -1 30.2 0 0
20:44 1023 30.21 852 25.16 1 33.7 87 -0.9 30.4 0 0
20:45 1023 30.21 852 25.16 1.1 34 88 -0.7 30.7 0 0
20:46 1023 30.21 852 25.16 1.2 34.2 87 -0.7 30.8 0 0
20:47 1023 30.21 852 25.16 1.3 34.4 87 -0.6 30.9 0 0
20:48 1023 30.21 852 25.16 1.5 34.7 86 -0.7 30.8 0 0
20:49 1023 30.21 852 25.16 1.6 35 85 -0.6 30.9 0 0
20:50 1023 30.21 852 25.16 1.7 35.1 85 -0.6 30.9 0 0
20:51 1023 30.21 852 25.16 1.8 35.2 84 -0.6 30.9 0 0
20:52 1023 30.21 852 25.16 1.8 35.2 84 -0.7 30.8 0 0
20:53 1023 30.21 852 25.16 1.8 35.2 84 -0.7 30.7 0 0
20:54 1023 30.21 852 25.16 1.8 35.2 83 -0.8 30.6 0 0
20:55 1023 30.21 852 25.16 1.7 35.1 83 -0.8 30.6 0 0
20:56 1023 30.21 852 25.16 1.6 34.9 83 -0.9 30.3 0 0
20:57 1023 30.21 852 25.16 1.5 34.7 84 -0.9 30.3 0 0
20:58 1023 30.21 852 25.16 1.5 34.6 84 -0.9 30.3 0 0
20:59 1023 30.21 852 25.16 1.4 34.5 84 -0.9 30.3 0 0
21:00 1023 30.21 852 25.16 1.4 34.5 84 -1 30.3 0 0
21:01 1023 30.21 852 25.16 1.4 34.5 84 -1 30.2 0 0
21:02 1023 30.21 852 25.16 1.4 34.4 84 -1 30.2 0 0
21:03 1023 30.21 852 25.16 1.4 34.5 84 -1 30.2 0 0
21:04 1023 30.21 852 25.16 1.4 34.6 84 -1 30.3 0 0
21:05 1023 30.21 852 25.16 1.5 34.7 84 -0.9 30.4 0 0
21:06 1023 30.21 852 25.16 1.5 34.7 84 -0.9 30.3 0 0
21:07 1023 30.21 852 25.16 1.5 34.8 84 -1 30.3 0 0
21:08 1023 30.21 852 25.16 1.5 34.8 84 -1 30.3 0 0
21:09 1023 30.21 852 25.16 1.5 34.7 84 -1 30.2 0 0
21:10 1023 30.21 852 25.16 1.5 34.7 84 -1 30.3 0 0
21:11 1023 30.21 852 25.16 1.4 34.6 84 -1 30.2 0 0
21:12 1023 30.21 852 25.16 1.4 34.6 84 -1 30.2 0 0
21:13 1023 30.21 852 25.16 1.4 34.5 84 -1 30.1 0 0
21:14 1023 30.21 852 25.16 1.4 34.5 84 -1 30.1 0 0
21:15 1023 30.21 852 25.16 1.4 34.5 84 -1 30.2 0 0
21:16 1023 30.21 852 25.16 1.4 34.5 84 -1 30.1 0 0
21:17 1023 30.21 852 25.16 1.4 34.5 84 -1 30.2 0 0
21:18 1023 30.21 852 25.16 1.4 34.5 84 -1 30.1 0 0
21:19 1023 30.21 852 25.16 1.4 34.5 84 -1 30.1 0 0
21:20 1023 30.21 852 25.16 1.4 34.5 84 -1.1 30.1 0 0
21:21 1023 30.21 852 25.16 1.4 34.5 84 -1.1 30 0 0
21:22 1023 30.21 852 25.16 1.4 34.5 83 -1.1 30 0 0
21:23 1023 30.21 852 25.16 1.4 34.4 84 -1.1 30 0 0
21:24 1023 30.21 852 25.16 1.3 34.4 84 -1.1 30 0 0
21:25 1023 30.21 852 25.16 1.3 34.4 84 -1.1 29.9 0 0
21:26 1023 30.21 852 25.16 1.2 34.2 84 -1.1 29.9 0 0
21:27 1023 30.21 852 25.16 1.2 34.2 84 -1.2 29.9 0 0
21:28 1023 30.21 852 25.16 1.2 34.2 84 -1.2 29.9 0 0
21:29 1023 30.21 852 25.16 1.2 34.2 84 -1.2 29.9 0 0
21:30 1023 30.21 852 25.16 1.2 34.2 84 -1.1 29.9 0 0
21:31 1023 30.21 852 25.16 1.3 34.3 84 -1.1 30 0 0
21:32 1023 30.21 852 25.16 1.3 34.3 84 -1.1 30 0 0
21:33 1023 30.21 852 25.16 1.3 34.4 84 -1.1 30 0 0
21:34 1023 30.21 852 25.16 1.4 34.6 84 -1.1 30.1 0 0
21:35 1023 30.21 852 25.16 1.5 34.7 83 -1 30.1 0 0
21:36 1023 30.21 852 25.16 1.5 34.7 83 -1.1 30 0 0
21:37 1023 30.21 852 25.16 1.5 34.8 83 -1 30.1 0 0
21:38 1023 30.21 852 25.16 1.5 34.8 83 -1 30.1 0 0
21:39 1023 30.21 852 25.16 1.5 34.7 83 -1.1 30.1 0 0
21:40 1023 30.21 852 25.16 1.6 34.8 83 -1 30.1 0 0
21:41 1023 30.21 852 25.16 1.6 34.8 83 -1 30.2 0 0
21:42 1023 30.21 852 25.16 1.6 34.9 83 -1 30.2 0 0
21:43 1023 30.21 852 25.16 1.6 34.9 83 -1 30.2 0 0
21:44 1023 30.21 852 25.16 1.6 34.9 82 -1 30.1 0 0
21:45 1023 30.21 852 25.16 1.7 35.1 82 -1 30.1 0 0
21:46 1023 30.21 852 25.16 1.8 35.2 82 -1 30.2 0 0
21:47 1023 30.21 852 25.16 1.8 35.2 81 -1.1 30 0 0
21:48 1023 30.21 852 25.16 1.7 35.1 81 -1.1 30 0 0
21:49 1023 30.21 852 25.16 1.8 35.2 81 -1.1 29.9 0 0
21:50 1023 30.21 852 25.16 1.8 35.3 81 -1.1 30 0 0
21:51 1023 30.21 852 25.16 1.8 35.3 81 -1.1 30 0 0
21:52 1023 30.21 852 25.16 1.8 35.3 80 -1.2 29.8 0 0
21:53 1023 30.21 852 25.16 1.9 35.4 80 -1.2 29.9 0 0
21:54 1023 30.21 852 25.16 1.9 35.4 79 -1.3 29.7 0 0
21:55 1023 30.21 852 25.16 1.9 35.5 80 -1.2 29.8 0 0
21:56 1023 30.21 852 25.16 2 35.5 79 -1.3 29.7 0 0
21:57 1023 30.21 852 25.16 2 35.6 79 -1.3 29.7 0 0
21:58 1023 30.21 852 25.16 2 35.6 79 -1.3 29.7 0 0
21:59 1023 30.21 852 25.16 2 35.6 79 -1.3 29.7 0 0
22:00 1023 30.21 852 25.16 2 35.6 79 -1.3 29.7 0 0
22:01 1023 30.21 852 25.16 2 35.6 79 -1.2 29.8 0 0
22:02 1023 30.21 852 25.16 2 35.6 79 -1.3 29.7 0 0
22:03 1023 30.21 852 25.16 2 35.6 79 -1.3 29.7 0 0
22:04 1023 30.21 852 25.16 2 35.7 78 -1.4 29.4 0 0
22:05 1023 30.21 852 25.16 2 35.6 78 -1.4 29.4 0 0
22:06 1023 30.21 852 25.16 2 35.6 78 -1.4 29.5 0 0
22:07 1023 30.21 852 25.16 2 35.7 78 -1.4 29.5 0 0
22:08 1023 30.21 852 25.16 2 35.5 78 -1.4 29.5 0 0
22:09 1023 30.21 852 25.16 1.9 35.4 78 -1.5 29.3 0 0
22:10 1023 30.21 852 25.16 1.7 35.1 79 -1.5 29.4 0 0
22:11 1023 30.21 852 25.16 1.7 35 80 -1.4 29.4 0 0
22:12 1023 30.21 852 25.16 1.6 34.9 80 -1.4 29.4 0 0
22:13 1023 30.21 852 25.16 1.5 34.7 80 -1.5 29.3 0 0
22:14 1023 30.21 852 25.16 1.4 34.6 81 -1.5 29.2 0 0
22:15 1023 30.21 852 25.16 1.5 34.6 81 -1.4 29.4 0 0
22:16 1023 30.21 852 25.16 1.6 34.8 80 -1.5 29.4 0 0
22:17 1023 30.21 852 25.16 1.6 34.8 80 -1.5 29.3 0 0
22:18 1023 30.21 852 25.16 1.5 34.6 81 -1.5 29.3 0 0
22:19 1023 30.21 852 25.16 1.5 34.6 81 -1.5 29.4 0 0
22:20 1023 30.21 852 25.16 1.5 34.6 81 -1.5 29.2 0 0
22:21 1023 30.21 852 25.16 1.5 34.7 80 -1.5 29.3 0 0
22:22 1023 30.21 852 25.16 1.5 34.8 80 -1.5 29.3 0 0
22:23 1023 30.21 852 25.16 1.6 34.9 80 -1.5 29.3 0 0
22:24 1023 30.21 852 25.16 1.7 35 79 -1.5 29.3 0 0
22:25 1023 30.21 852 25.16 1.8 35.3 79 -1.5 29.3 0 0
22:26 1023 30.21 852 25.16 2 35.5 78 -1.5 29.3 0 0
22:27 1023 30.21 852 25.16 2 35.6 78 -1.5 29.3 0 0
22:28 1023 30.21 852 25.16 1.9 35.4 78 -1.6 29.1 0 0
22:29 1023 30.21 852 25.16 1.9 35.4 78 -1.5 29.3 0 0
22:30 1023 30.21 852 25.16 1.8 35.3 79 -1.5 29.2 0 0
22:31 1023 30.21 852 25.16 1.7 35 79 -1.6 29.1 0 0
22:32 1023 30.21 852 25.16 1.5 34.7 79 -1.7 29 0 0
22:33 1023 30.21 852 25.16 1.3 34.4 80 -1.7 28.9 0 0
22:34 1023 30.21 852 25.16 1.2 34.1 81 -1.7 28.9 0 0
22:35 1023 30.21 852 25.16 1.1 34 82 -1.7 29 0 0
22:36 1023 30.21 852 25.16 1 33.8 82 -1.7 29 0 0
22:37 1023 30.21 852 25.16 1 33.8 82 -1.7 29 0 0
22:38 1023 30.21 852 25.16 1 33.8 82 -1.7 28.9 0 0
22:39 1023 30.21 852 25.16 1 33.8 82 -1.7 28.9 0 0
22:40 1023 30.21 852 25.16 1 33.8 82 -1.7 28.9 0 0
22:41 1023 30.21 852 25.16 1 33.8 82 -1.7 28.9 0 0
22:42 1023 30.21 852 25.16 1.1 34 82 -1.7 29 0 0
22:43 1023 30.21 852 25.16 1.2 34.2 81 -1.7 28.9 0 0
22:44 1023 30.21 852 25.16 1.2 34.1 81 -1.8 28.8 0 0
22:45 1023 30.21 852 25.16 1.3 34.3 81 -1.7 29 0 0
22:46 1023 30.21 852 25.16 1.4 34.4 80 -1.7 29 0 0
22:47 1023 30.21 852 25.16 1.4 34.4 80 -1.8 28.8 0 0
22:48 1023 30.21 852 25.16 1.3 34.3 79 -1.9 28.6 0 0
22:49 1023 30.21 852 25.16 1.2 34.1 81 -1.8 28.7 0 0
22:50 1023 30.21 852 25.16 1.1 34 81 -1.8 28.8 0 0
22:51 1023 30.21 852 25.16 1.1 34.1 81 -1.8 28.8 0 0
22:52 1023 30.21 852 25.16 1.2 34.1 81 -1.8 28.8 0 0
22:53 1023 30.21 852 25.16 1.3 34.3 80 -1.7 28.9 0 0
22:54 1023 30.21 852 25.16 1.5 34.6 80 -1.7 28.9 0 0
22:55 1023 30.21 852 25.16 1.7 35 78 -1.8 28.8 0 0
22:56 1023 30.21 852 25.16 1.7 35 78 -1.8 28.7 0 0
22:57 1023 30.21 852 25.16 1.6 34.8 78 -1.8 28.7 0 0
22:58 1023 30.21 852 25.16 1.5 34.7 79 -1.8 28.8 0 0
22:59 1023 30.21 852 25.16 1.5 34.7 79 -1.7 28.9 0 0
23:00 1023 30.21 852 25.16 1.6 34.9 78 -1.7 28.9 0 0
23:01 1023 30.21 852 25.16 1.6 34.9 78 -1.8 28.8 0 0
23:02 1023 30.21 852 25.16 1.6 34.8 78 -1.8 28.8 0 0
23:03 1023 30.21 852 25.16 1.4 34.5 79 -1.9 28.6 0 0
23:04 1023 30.21 852 25.16 1.4 34.5 80 -1.8 28.8 0 0
23:05 1023 30.21 852 25.16 1.4 34.5 79 -1.8 28.8 0 0
23:06 1023 30.21 852 25.16 1.5 34.7 79 -1.8 28.8 0 0
23:07 1023 30.21 852 25.16 1.5 34.7 79 -1.8 28.8 0 0
23:08 1023 30.21 852 25.16 1.4 34.5 79 -1.9 28.6 0 0
23:09 1023 30.21 852 25.16 1.3 34.3 79 -1.9 28.6 0 0
23:10 1023 30.21 852 25.16 1.1 34 80 -2 28.4 0 0
23:11 1023 30.21 852 25.16 1 33.8 81 -2 28.5 0 0
23:12 1023 30.21 852 25.16 0.9 33.6 81 -2 28.4 0 0
23:13 1023 30.21 852 25.16 0.9 33.6 82 -1.9 28.5 0 0
23:14 1023 30.21 852 25.16 0.8 33.5 81 -2 28.4 0 0
23:15 1023 30.21 852 25.16 0.7 33.2 82 -2.1 28.2 0 0
23:16 1023 30.21 852 25.16 0.6 33 82 -2.2 28.1 0 0
23:17 1023 30.21 852 25.16 0.5 32.8 83 -2.1 28.1 0 0
23:18 1023 30.21 852 25.16 0.4 32.8 83 -2.2 28.1 0 0
23:19 1023 30.21 852 25.16 0.4 32.7 83 -2.2 28 0 0
23:20 1023 30.21 852 25.16 0.3 32.6 82 -2.3 27.8 0 0
23:21 1023 30.21 852 25.16 0.1 32.1 82 -2.7 27.2 0 0
23:22 1023 30.21 852 25.16 -0.2 31.7 83 -2.7 27.1 0 0
23:23 1023 30.21 852 25.16 -0.4 31.2 84 -2.8 27 0 0
23:24 1023 30.21 852 25.16 -0.6 31 86 -2.6 27.3 0 0
23:25 1023 30.21 852 25.16 -0.6 30.9 87 -2.6 27.4 0 0
23:26 1023 30.21 852 25.16 -0.6 31 87 -2.5 27.6 0 0
23:27 1023 30.21 852 25.16 -0.6 31 86 -2.7 27.2 0 0
23:28 1023 30.21 852 25.16 -0.6 30.9 86 -2.7 27.1 0 0
23:29 1023 30.21 852 25.16 -0.7 30.7 86 -2.8 27 0 0
23:30 1023 30.21 852 25.16 -0.7 30.7 88 -2.5 27.5 0 0
23:31 1023 30.21 852 25.16 -0.6 31 86 -2.6 27.3 0 0
23:32 1023 30.21 852 25.16 -0.6 30.9 84 -3 26.5 0 0
23:33 1023 30.21 852 25.16 -0.8 30.5 84 -3.2 26.2 0 0
23:34 1023 30.21 852 25.16 -1.1 30.1 85 -3.2 26.2 0 0
23:35 1023 30.21 852 25.16 -1.3 29.6 87 -3.2 26.2 0 0
23:36 1023 30.21 852 25.16 -1.4 29.4 88 -3.2 26.3 0 0
23:37 1023 30.21 852 25.16 -1.4 29.4 89 -3 26.6 0 0
23:38 1023 30.21 852 25.16 -1.4 29.6 89 -3 26.6 0 0
23:39 1023 30.21 852 25.16 -1.4 29.6 88 -3 26.5 0 0
23:40 1023 30.21 852 25.16 -1.3 29.6 88 -3 26.6 0 0
23:41 1023 30.21 852 25.16 -1.4 29.5 88 -3.1 26.5 0 0
23:42 1023 30.21 852 25.16 -1.4 29.4 89 -3.1 26.4 0 0
23:43 1023 30.21 852 25.16 -1.4 29.5 89 -3 26.7 0 0
23:44 1023 30.21 852 25.16 -1.4 29.5 89 -3 26.6 0 0
23:45 1023 30.21 852 25.16 -1.5 29.4 88 -3.2 26.3 0 0
23:46 1023 30.21 852 25.16 -1.6 29.1 88 -3.3 26.1 0 0
23:47 1023 30.21 852 25.16 -1.7 28.9 89 -3.3 26.1 0 0
23:48 1023 30.21 852 25.16 -1.8 28.7 90 -3.3 26.1 0 0
23:49 1023 30.21 852 25.16 -1.8 28.7 90 -3.2 26.2 0 0
23:50 1023 30.21 852 25.16 -1.8 28.8 91 -3 26.6 0 0
23:51 1023 30.21 852 25.16 -1.6 29.1 93 -2.6 27.3 0 0
23:52 1023 30.21 852 25.16 -1.1 29.9 92 -2.3 27.8 0 0
23:53 1023 30.21 852 25.16 -0.7 30.8 88 -2.4 27.7 0 0
23:54 1023 30.21 852 25.16 -0.4 31.4 86 -2.5 27.5 0 0
23:55 1023 30.21 852 25.16 -0.3 31.4 85 -2.6 27.4 0 0
23:56 1023 30.21 852 25.16 -0.4 31.3 86 -2.5 27.5 0 0
23:57 1023 30.21 852 25.16 -0.4 31.3 86 -2.4 27.6 0 0
23:58 1023 30.21 852 25.16 -0.4 31.4 87 -2.3 27.8 0 0
23:59 1023 30.21 852 25.16 -0.2 31.6 85 -2.4 27.7 0 0
24:00 1023 30.21 852 25.16 -0.2 31.6 85 -2.5 27.5 0 0